sensor_id;sensor_type;location;lat;lon;timestamp;temperature;humidity
21104;DHT22;10710;53.398;-1.514;2023-08-06T00:00:32;12.40;99.90
21104;DHT22;10710;53.398;-1.514;2023-08-06T00:03:16;12.30;99.90
21104;DHT22;10710;53.398;-1.514;2023-08-06T00:06:01;12.30;99.90
21104;DHT22;10710;53.398;-1.514;2023-08-06T00:08:45;12.20;99.90
21104;DHT22;10710;53.398;-1.514;2023-08-06T00:11:30;12.30;99.90
21104;DHT22;10710;53.398;-1.514;2023-08-06T00:14:14;12.30;99.90
21104;DHT22;10710;53.398;-1.514;2023-08-06T00:17:01;12.30;99.90
21104;DHT22;10710;53.398;-1.514;2023-08-06T00:19:46;12.30;99.90
21104;DHT22;10710;53.398;-1.514;2023-08-06T00:22:34;12.20;99.90
21104;DHT22;10710;53.398;-1.514;2023-08-06T00:25:19;12.20;99.90
21104;DHT22;10710;53.398;-1.514;2023-08-06T00:28:04;12.30;99.90
21104;DHT22;10710;53.398;-1.514;2023-08-06T00:30:54;12.30;99.90
21104;DHT22;10710;53.398;-1.514;2023-08-06T00:33:39;12.20;99.90
21104;DHT22;10710;53.398;-1.514;2023-08-06T00:36:23;12.20;99.90
21104;DHT22;10710;53.398;-1.514;2023-08-06T00:39:07;12.10;99.90
21104;DHT22;10710;53.398;-1.514;2023-08-06T00:41:51;12.10;99.90
21104;DHT22;10710;53.398;-1.514;2023-08-06T00:44:36;12.20;99.90
21104;DHT22;10710;53.398;-1.514;2023-08-06T00:47:20;12.20;99.90
21104;DHT22;10710;53.398;-1.514;2023-08-06T00:50:07;12.20;99.90
21104;DHT22;10710;53.398;-1.514;2023-08-06T00:52:51;12.20;99.90
21104;DHT22;10710;53.398;-1.514;2023-08-06T00:55:36;12.20;99.90
21104;DHT22;10710;53.398;-1.514;2023-08-06T00:58:21;12.20;99.90
21104;DHT22;10710;53.398;-1.514;2023-08-06T01:01:05;12.20;99.90
21104;DHT22;10710;53.398;-1.514;2023-08-06T01:03:49;12.10;99.90
21104;DHT22;10710;53.398;-1.514;2023-08-06T01:06:51;12.20;99.90
21104;DHT22;10710;53.398;-1.514;2023-08-06T01:09:48;12.20;99.90
21104;DHT22;10710;53.398;-1.514;2023-08-06T01:12:42;12.10;99.90
21104;DHT22;10710;53.398;-1.514;2023-08-06T01:15:37;12.00;99.90
21104;DHT22;10710;53.398;-1.514;2023-08-06T01:18:23;12.00;99.90
21104;DHT22;10710;53.398;-1.514;2023-08-06T01:21:07;12.00;99.90
21104;DHT22;10710;53.398;-1.514;2023-08-06T01:23:51;12.00;99.90
21104;DHT22;10710;53.398;-1.514;2023-08-06T01:26:48;11.90;99.90
21104;DHT22;10710;53.398;-1.514;2023-08-06T01:29:41;12.00;99.90
21104;DHT22;10710;53.398;-1.514;2023-08-06T01:32:32;11.90;99.90
21104;DHT22;10710;53.398;-1.514;2023-08-06T01:35:19;11.90;99.90
21104;DHT22;10710;53.398;-1.514;2023-08-06T01:38:03;11.90;99.90
21104;DHT22;10710;53.398;-1.514;2023-08-06T01:40:48;11.90;99.90
21104;DHT22;10710;53.398;-1.514;2023-08-06T01:43:32;11.90;99.90
21104;DHT22;10710;53.398;-1.514;2023-08-06T01:46:16;11.80;99.90
21104;DHT22;10710;53.398;-1.514;2023-08-06T01:49:00;11.80;99.90
21104;DHT22;10710;53.398;-1.514;2023-08-06T01:51:44;11.80;99.90
21104;DHT22;10710;53.398;-1.514;2023-08-06T01:54:29;11.80;99.90
21104;DHT22;10710;53.398;-1.514;2023-08-06T01:57:13;11.80;99.90
21104;DHT22;10710;53.398;-1.514;2023-08-06T01:59:57;11.80;99.90
21104;DHT22;10710;53.398;-1.514;2023-08-06T02:02:41;11.70;99.90
21104;DHT22;10710;53.398;-1.514;2023-08-06T02:05:25;11.80;99.90
21104;DHT22;10710;53.398;-1.514;2023-08-06T02:08:09;11.80;99.90
21104;DHT22;10710;53.398;-1.514;2023-08-06T02:10:53;11.80;99.90
21104;DHT22;10710;53.398;-1.514;2023-08-06T02:13:38;11.80;99.90
21104;DHT22;10710;53.398;-1.514;2023-08-06T02:16:23;11.70;99.90
21104;DHT22;10710;53.398;-1.514;2023-08-06T02:19:07;11.70;99.90
21104;DHT22;10710;53.398;-1.514;2023-08-06T02:21:51;11.80;99.90
21104;DHT22;10710;53.398;-1.514;2023-08-06T02:24:35;11.80;99.90
21104;DHT22;10710;53.398;-1.514;2023-08-06T02:27:19;11.70;99.90
21104;DHT22;10710;53.398;-1.514;2023-08-06T02:30:04;11.70;99.90
21104;DHT22;10710;53.398;-1.514;2023-08-06T02:32:49;11.70;99.90
21104;DHT22;10710;53.398;-1.514;2023-08-06T02:35:33;11.70;99.90
21104;DHT22;10710;53.398;-1.514;2023-08-06T02:38:17;11.60;99.90
21104;DHT22;10710;53.398;-1.514;2023-08-06T02:41:02;11.60;99.90
21104;DHT22;10710;53.398;-1.514;2023-08-06T02:43:47;11.50;99.90
21104;DHT22;10710;53.398;-1.514;2023-08-06T02:46:31;11.40;99.90
21104;DHT22;10710;53.398;-1.514;2023-08-06T02:49:15;11.50;99.90
21104;DHT22;10710;53.398;-1.514;2023-08-06T02:52:00;11.40;99.90
21104;DHT22;10710;53.398;-1.514;2023-08-06T02:54:44;11.40;99.90
21104;DHT22;10710;53.398;-1.514;2023-08-06T02:57:28;11.40;99.90
21104;DHT22;10710;53.398;-1.514;2023-08-06T03:00:13;11.40;99.90
21104;DHT22;10710;53.398;-1.514;2023-08-06T03:02:57;11.40;99.90
21104;DHT22;10710;53.398;-1.514;2023-08-06T03:05:41;11.40;99.90
21104;DHT22;10710;53.398;-1.514;2023-08-06T03:08:35;11.40;99.90
21104;DHT22;10710;53.398;-1.514;2023-08-06T03:11:20;11.40;99.90
21104;DHT22;10710;53.398;-1.514;2023-08-06T03:14:04;11.40;99.90
21104;DHT22;10710;53.398;-1.514;2023-08-06T03:16:48;11.40;99.90
21104;DHT22;10710;53.398;-1.514;2023-08-06T03:19:32;11.50;99.90
21104;DHT22;10710;53.398;-1.514;2023-08-06T03:22:16;11.50;99.90
21104;DHT22;10710;53.398;-1.514;2023-08-06T03:25:01;11.50;99.90
21104;DHT22;10710;53.398;-1.514;2023-08-06T03:27:45;11.40;99.90
21104;DHT22;10710;53.398;-1.514;2023-08-06T03:30:29;11.30;99.90
21104;DHT22;10710;53.398;-1.514;2023-08-06T03:33:15;11.30;99.90
21104;DHT22;10710;53.398;-1.514;2023-08-06T03:35:59;11.20;99.90
21104;DHT22;10710;53.398;-1.514;2023-08-06T03:38:44;11.20;99.90
21104;DHT22;10710;53.398;-1.514;2023-08-06T03:41:28;11.30;99.90
21104;DHT22;10710;53.398;-1.514;2023-08-06T03:44:13;11.30;99.90
21104;DHT22;10710;53.398;-1.514;2023-08-06T03:46:57;11.30;99.90
21104;DHT22;10710;53.398;-1.514;2023-08-06T03:49:41;11.30;99.90
21104;DHT22;10710;53.398;-1.514;2023-08-06T03:52:26;11.30;99.90
21104;DHT22;10710;53.398;-1.514;2023-08-06T03:55:10;11.30;99.90
21104;DHT22;10710;53.398;-1.514;2023-08-06T03:57:54;11.30;99.90
21104;DHT22;10710;53.398;-1.514;2023-08-06T04:00:38;11.20;99.90
21104;DHT22;10710;53.398;-1.514;2023-08-06T04:03:22;11.30;99.90
21104;DHT22;10710;53.398;-1.514;2023-08-06T04:06:07;11.30;99.90
21104;DHT22;10710;53.398;-1.514;2023-08-06T04:08:51;11.30;99.90
21104;DHT22;10710;53.398;-1.514;2023-08-06T04:11:35;11.30;99.90
21104;DHT22;10710;53.398;-1.514;2023-08-06T04:14:19;11.40;99.90
21104;DHT22;10710;53.398;-1.514;2023-08-06T04:17:04;11.40;99.90
21104;DHT22;10710;53.398;-1.514;2023-08-06T04:19:53;11.40;99.90
21104;DHT22;10710;53.398;-1.514;2023-08-06T04:22:37;11.60;99.90
21104;DHT22;10710;53.398;-1.514;2023-08-06T04:25:22;11.70;99.90
21104;DHT22;10710;53.398;-1.514;2023-08-06T04:28:07;11.80;99.90
21104;DHT22;10710;53.398;-1.514;2023-08-06T04:30:52;11.90;99.90
21104;DHT22;10710;53.398;-1.514;2023-08-06T04:33:37;12.00;99.90
21104;DHT22;10710;53.398;-1.514;2023-08-06T04:36:21;12.00;99.90
21104;DHT22;10710;53.398;-1.514;2023-08-06T04:39:06;12.00;99.90
21104;DHT22;10710;53.398;-1.514;2023-08-06T04:41:50;12.10;99.90
21104;DHT22;10710;53.398;-1.514;2023-08-06T04:44:34;12.20;99.90
21104;DHT22;10710;53.398;-1.514;2023-08-06T04:47:18;12.20;99.90
21104;DHT22;10710;53.398;-1.514;2023-08-06T04:50:03;12.30;99.90
21104;DHT22;10710;53.398;-1.514;2023-08-06T04:52:47;12.30;99.90
21104;DHT22;10710;53.398;-1.514;2023-08-06T04:55:31;12.30;99.90
21104;DHT22;10710;53.398;-1.514;2023-08-06T04:58:15;12.30;99.90
21104;DHT22;10710;53.398;-1.514;2023-08-06T05:00:59;12.40;99.90
21104;DHT22;10710;53.398;-1.514;2023-08-06T05:03:44;12.40;99.90
21104;DHT22;10710;53.398;-1.514;2023-08-06T05:06:28;12.50;99.90
21104;DHT22;10710;53.398;-1.514;2023-08-06T05:09:12;12.50;99.90
21104;DHT22;10710;53.398;-1.514;2023-08-06T05:11:56;12.50;99.90
21104;DHT22;10710;53.398;-1.514;2023-08-06T05:14:40;12.60;99.90
21104;DHT22;10710;53.398;-1.514;2023-08-06T05:17:25;12.70;99.90
21104;DHT22;10710;53.398;-1.514;2023-08-06T05:20:09;12.70;99.90
21104;DHT22;10710;53.398;-1.514;2023-08-06T05:22:54;12.70;99.90
21104;DHT22;10710;53.398;-1.514;2023-08-06T05:25:39;12.80;99.90
21104;DHT22;10710;53.398;-1.514;2023-08-06T05:28:23;12.80;99.90
21104;DHT22;10710;53.398;-1.514;2023-08-06T05:31:07;12.90;99.90
21104;DHT22;10710;53.398;-1.514;2023-08-06T05:33:52;13.00;99.90
21104;DHT22;10710;53.398;-1.514;2023-08-06T05:36:36;13.10;99.90
21104;DHT22;10710;53.398;-1.514;2023-08-06T05:39:20;13.10;99.90
21104;DHT22;10710;53.398;-1.514;2023-08-06T05:42:05;13.10;99.90
21104;DHT22;10710;53.398;-1.514;2023-08-06T05:44:49;13.00;99.90
21104;DHT22;10710;53.398;-1.514;2023-08-06T05:47:33;13.00;99.90
21104;DHT22;10710;53.398;-1.514;2023-08-06T05:50:17;13.10;99.90
21104;DHT22;10710;53.398;-1.514;2023-08-06T05:53:01;13.20;99.90
21104;DHT22;10710;53.398;-1.514;2023-08-06T05:55:47;13.30;99.90
21104;DHT22;10710;53.398;-1.514;2023-08-06T05:58:31;13.50;99.90
21104;DHT22;10710;53.398;-1.514;2023-08-06T06:01:15;13.60;99.90
21104;DHT22;10710;53.398;-1.514;2023-08-06T06:03:59;13.60;99.90
21104;DHT22;10710;53.398;-1.514;2023-08-06T06:06:43;13.60;99.90
21104;DHT22;10710;53.398;-1.514;2023-08-06T06:09:28;13.60;99.90
21104;DHT22;10710;53.398;-1.514;2023-08-06T06:12:12;13.70;99.90
21104;DHT22;10710;53.398;-1.514;2023-08-06T06:14:56;13.80;99.90
21104;DHT22;10710;53.398;-1.514;2023-08-06T06:17:41;13.70;99.90
21104;DHT22;10710;53.398;-1.514;2023-08-06T06:20:25;13.80;99.90
21104;DHT22;10710;53.398;-1.514;2023-08-06T06:23:09;13.90;99.90
21104;DHT22;10710;53.398;-1.514;2023-08-06T06:25:54;14.10;99.90
21104;DHT22;10710;53.398;-1.514;2023-08-06T06:28:39;14.10;99.90
21104;DHT22;10710;53.398;-1.514;2023-08-06T06:31:24;14.20;99.90
21104;DHT22;10710;53.398;-1.514;2023-08-06T06:34:08;14.30;99.90
21104;DHT22;10710;53.398;-1.514;2023-08-06T06:36:52;14.30;99.90
21104;DHT22;10710;53.398;-1.514;2023-08-06T06:39:37;14.40;99.90
21104;DHT22;10710;53.398;-1.514;2023-08-06T06:42:21;14.50;99.90
21104;DHT22;10710;53.398;-1.514;2023-08-06T06:45:07;14.50;99.90
21104;DHT22;10710;53.398;-1.514;2023-08-06T06:47:51;14.50;99.90
21104;DHT22;10710;53.398;-1.514;2023-08-06T06:50:36;14.70;99.90
21104;DHT22;10710;53.398;-1.514;2023-08-06T06:53:20;14.80;99.90
21104;DHT22;10710;53.398;-1.514;2023-08-06T06:56:05;14.70;99.90
21104;DHT22;10710;53.398;-1.514;2023-08-06T06:58:49;14.90;99.90
21104;DHT22;10710;53.398;-1.514;2023-08-06T07:01:33;14.80;99.90
21104;DHT22;10710;53.398;-1.514;2023-08-06T07:04:18;14.90;99.90
21104;DHT22;10710;53.398;-1.514;2023-08-06T07:07:02;15.00;99.90
21104;DHT22;10710;53.398;-1.514;2023-08-06T07:09:47;14.80;99.90
21104;DHT22;10710;53.398;-1.514;2023-08-06T07:12:31;14.90;99.90
21104;DHT22;10710;53.398;-1.514;2023-08-06T07:15:15;14.90;99.90
21104;DHT22;10710;53.398;-1.514;2023-08-06T07:18:02;14.90;99.90
21104;DHT22;10710;53.398;-1.514;2023-08-06T07:20:53;15.00;99.90
21104;DHT22;10710;53.398;-1.514;2023-08-06T07:23:37;15.10;99.90
21104;DHT22;10710;53.398;-1.514;2023-08-06T07:26:22;15.20;99.90
21104;DHT22;10710;53.398;-1.514;2023-08-06T07:29:06;15.20;99.90
21104;DHT22;10710;53.398;-1.514;2023-08-06T07:31:50;15.10;99.90
21104;DHT22;10710;53.398;-1.514;2023-08-06T07:34:34;15.40;99.90
21104;DHT22;10710;53.398;-1.514;2023-08-06T07:37:18;15.40;99.90
21104;DHT22;10710;53.398;-1.514;2023-08-06T07:40:03;15.60;99.90
21104;DHT22;10710;53.398;-1.514;2023-08-06T07:42:48;15.60;99.90
21104;DHT22;10710;53.398;-1.514;2023-08-06T07:45:34;15.70;99.90
21104;DHT22;10710;53.398;-1.514;2023-08-06T07:48:19;15.60;99.90
21104;DHT22;10710;53.398;-1.514;2023-08-06T07:51:03;15.60;99.90
21104;DHT22;10710;53.398;-1.514;2023-08-06T07:53:47;15.50;99.90
21104;DHT22;10710;53.398;-1.514;2023-08-06T07:56:31;15.60;99.90
21104;DHT22;10710;53.398;-1.514;2023-08-06T07:59:15;15.80;99.90
21104;DHT22;10710;53.398;-1.514;2023-08-06T08:02:00;15.70;99.90
21104;DHT22;10710;53.398;-1.514;2023-08-06T08:04:45;15.60;99.90
21104;DHT22;10710;53.398;-1.514;2023-08-06T08:07:31;15.70;99.90
21104;DHT22;10710;53.398;-1.514;2023-08-06T08:10:15;15.90;99.90
21104;DHT22;10710;53.398;-1.514;2023-08-06T08:13:00;16.00;99.90
21104;DHT22;10710;53.398;-1.514;2023-08-06T08:15:45;16.00;99.90
21104;DHT22;10710;53.398;-1.514;2023-08-06T08:18:29;16.00;99.90
21104;DHT22;10710;53.398;-1.514;2023-08-06T08:21:15;16.40;99.90
21104;DHT22;10710;53.398;-1.514;2023-08-06T08:24:00;16.70;99.90
21104;DHT22;10710;53.398;-1.514;2023-08-06T08:26:45;16.60;99.90
21104;DHT22;10710;53.398;-1.514;2023-08-06T08:29:29;16.70;99.90
21104;DHT22;10710;53.398;-1.514;2023-08-06T08:32:14;16.90;99.90
21104;DHT22;10710;53.398;-1.514;2023-08-06T08:34:58;17.10;99.90
21104;DHT22;10710;53.398;-1.514;2023-08-06T08:37:43;17.10;99.90
21104;DHT22;10710;53.398;-1.514;2023-08-06T08:40:32;16.90;99.90
21104;DHT22;10710;53.398;-1.514;2023-08-06T08:43:20;16.80;99.90
21104;DHT22;10710;53.398;-1.514;2023-08-06T08:46:05;17.00;99.90
21104;DHT22;10710;53.398;-1.514;2023-08-06T08:48:54;17.10;99.90
21104;DHT22;10710;53.398;-1.514;2023-08-06T08:51:38;17.20;99.90
21104;DHT22;10710;53.398;-1.514;2023-08-06T08:54:23;17.30;99.90
21104;DHT22;10710;53.398;-1.514;2023-08-06T08:57:08;16.90;99.90
21104;DHT22;10710;53.398;-1.514;2023-08-06T08:59:52;16.70;99.90
21104;DHT22;10710;53.398;-1.514;2023-08-06T09:02:38;16.60;99.90
21104;DHT22;10710;53.398;-1.514;2023-08-06T09:05:23;16.60;99.90
21104;DHT22;10710;53.398;-1.514;2023-08-06T09:08:11;16.90;99.90
21104;DHT22;10710;53.398;-1.514;2023-08-06T09:11:01;17.10;99.90
21104;DHT22;10710;53.398;-1.514;2023-08-06T09:13:46;17.00;99.90
21104;DHT22;10710;53.398;-1.514;2023-08-06T09:16:31;17.20;99.90
21104;DHT22;10710;53.398;-1.514;2023-08-06T09:19:15;17.00;99.90
21104;DHT22;10710;53.398;-1.514;2023-08-06T09:22:01;17.30;99.90
21104;DHT22;10710;53.398;-1.514;2023-08-06T09:24:45;17.10;99.90
21104;DHT22;10710;53.398;-1.514;2023-08-06T09:27:30;17.00;99.90
21104;DHT22;10710;53.398;-1.514;2023-08-06T09:30:29;17.10;99.90
21104;DHT22;10710;53.398;-1.514;2023-08-06T09:33:18;16.80;99.90
21104;DHT22;10710;53.398;-1.514;2023-08-06T09:36:12;16.90;99.90
21104;DHT22;10710;53.398;-1.514;2023-08-06T09:38:56;16.80;99.90
21104;DHT22;10710;53.398;-1.514;2023-08-06T09:41:41;16.50;99.90
21104;DHT22;10710;53.398;-1.514;2023-08-06T09:44:27;16.80;99.90
21104;DHT22;10710;53.398;-1.514;2023-08-06T09:47:12;17.00;99.90
21104;DHT22;10710;53.398;-1.514;2023-08-06T09:49:59;17.10;99.90
21104;DHT22;10710;53.398;-1.514;2023-08-06T09:52:44;17.20;99.90
21104;DHT22;10710;53.398;-1.514;2023-08-06T09:55:29;17.30;99.90
21104;DHT22;10710;53.398;-1.514;2023-08-06T09:58:14;17.20;99.90
21104;DHT22;10710;53.398;-1.514;2023-08-06T10:01:00;17.30;99.90
21104;DHT22;10710;53.398;-1.514;2023-08-06T10:03:47;17.20;99.90
21104;DHT22;10710;53.398;-1.514;2023-08-06T10:06:34;17.10;99.90
21104;DHT22;10710;53.398;-1.514;2023-08-06T10:09:20;17.30;99.90
21104;DHT22;10710;53.398;-1.514;2023-08-06T10:12:04;17.80;99.90
21104;DHT22;10710;53.398;-1.514;2023-08-06T10:14:50;18.20;99.90
21104;DHT22;10710;53.398;-1.514;2023-08-06T10:17:36;18.40;99.90
21104;DHT22;10710;53.398;-1.514;2023-08-06T10:20:21;18.40;99.90
21104;DHT22;10710;53.398;-1.514;2023-08-06T10:23:06;18.30;99.90
21104;DHT22;10710;53.398;-1.514;2023-08-06T10:25:53;18.60;99.90
21104;DHT22;10710;53.398;-1.514;2023-08-06T10:28:40;18.80;99.90
21104;DHT22;10710;53.398;-1.514;2023-08-06T10:31:53;18.80;99.90
21104;DHT22;10710;53.398;-1.514;2023-08-06T10:34:57;18.60;99.90
21104;DHT22;10710;53.398;-1.514;2023-08-06T10:37:45;18.70;99.90
21104;DHT22;10710;53.398;-1.514;2023-08-06T10:40:29;18.80;99.90
21104;DHT22;10710;53.398;-1.514;2023-08-06T10:46:27;18.80;99.90
21104;DHT22;10710;53.398;-1.514;2023-08-06T10:49:12;18.70;99.90
21104;DHT22;10710;53.398;-1.514;2023-08-06T10:51:56;18.70;99.90
21104;DHT22;10710;53.398;-1.514;2023-08-06T10:54:40;18.70;99.90
21104;DHT22;10710;53.398;-1.514;2023-08-06T10:57:25;18.80;99.90
21104;DHT22;10710;53.398;-1.514;2023-08-06T11:00:10;18.50;99.90
21104;DHT22;10710;53.398;-1.514;2023-08-06T11:02:57;18.00;99.90
21104;DHT22;10710;53.398;-1.514;2023-08-06T11:05:48;18.20;99.90
21104;DHT22;10710;53.398;-1.514;2023-08-06T11:08:34;18.30;99.90
21104;DHT22;10710;53.398;-1.514;2023-08-06T11:11:19;18.40;99.90
21104;DHT22;10710;53.398;-1.514;2023-08-06T11:14:04;18.20;99.90
21104;DHT22;10710;53.398;-1.514;2023-08-06T11:16:48;18.20;99.90
21104;DHT22;10710;53.398;-1.514;2023-08-06T11:19:33;18.60;99.90
21104;DHT22;10710;53.398;-1.514;2023-08-06T11:22:18;18.60;99.90
21104;DHT22;10710;53.398;-1.514;2023-08-06T11:25:02;18.60;99.90
21104;DHT22;10710;53.398;-1.514;2023-08-06T11:27:46;18.90;99.90
21104;DHT22;10710;53.398;-1.514;2023-08-06T11:30:30;18.50;99.90
21104;DHT22;10710;53.398;-1.514;2023-08-06T11:33:19;18.70;99.90
21104;DHT22;10710;53.398;-1.514;2023-08-06T11:36:04;18.90;99.90
21104;DHT22;10710;53.398;-1.514;2023-08-06T11:38:48;19.00;99.90
21104;DHT22;10710;53.398;-1.514;2023-08-06T11:41:33;19.20;99.90
21104;DHT22;10710;53.398;-1.514;2023-08-06T11:44:21;19.10;99.90
21104;DHT22;10710;53.398;-1.514;2023-08-06T11:47:15;19.40;99.90
21104;DHT22;10710;53.398;-1.514;2023-08-06T11:50:00;19.80;99.90
21104;DHT22;10710;53.398;-1.514;2023-08-06T11:52:44;19.70;99.90
21104;DHT22;10710;53.398;-1.514;2023-08-06T11:55:29;19.70;99.90
21104;DHT22;10710;53.398;-1.514;2023-08-06T11:58:17;19.80;99.90
21104;DHT22;10710;53.398;-1.514;2023-08-06T12:01:01;19.40;99.90
21104;DHT22;10710;53.398;-1.514;2023-08-06T12:03:45;19.60;99.90
21104;DHT22;10710;53.398;-1.514;2023-08-06T12:06:29;19.50;99.90
21104;DHT22;10710;53.398;-1.514;2023-08-06T12:09:14;19.70;99.90
21104;DHT22;10710;53.398;-1.514;2023-08-06T12:11:58;19.80;99.90
21104;DHT22;10710;53.398;-1.514;2023-08-06T12:14:42;19.80;99.90
21104;DHT22;10710;53.398;-1.514;2023-08-06T12:17:26;19.70;99.90
21104;DHT22;10710;53.398;-1.514;2023-08-06T12:20:11;20.00;99.90
21104;DHT22;10710;53.398;-1.514;2023-08-06T12:22:55;20.10;99.90
21104;DHT22;10710;53.398;-1.514;2023-08-06T12:25:40;20.00;99.90
21104;DHT22;10710;53.398;-1.514;2023-08-06T12:28:25;20.20;99.90
21104;DHT22;10710;53.398;-1.514;2023-08-06T12:31:09;20.30;99.90
21104;DHT22;10710;53.398;-1.514;2023-08-06T12:33:53;20.50;99.90
21104;DHT22;10710;53.398;-1.514;2023-08-06T12:36:37;20.30;99.90
21104;DHT22;10710;53.398;-1.514;2023-08-06T12:39:22;20.50;99.90
21104;DHT22;10710;53.398;-1.514;2023-08-06T12:42:06;20.50;99.90
21104;DHT22;10710;53.398;-1.514;2023-08-06T12:44:51;20.70;99.90
21104;DHT22;10710;53.398;-1.514;2023-08-06T12:47:35;20.80;99.90
21104;DHT22;10710;53.398;-1.514;2023-08-06T12:50:19;20.40;99.90
21104;DHT22;10710;53.398;-1.514;2023-08-06T12:53:03;20.60;99.90
21104;DHT22;10710;53.398;-1.514;2023-08-06T12:55:49;20.80;99.90
21104;DHT22;10710;53.398;-1.514;2023-08-06T12:58:33;20.50;99.90
21104;DHT22;10710;53.398;-1.514;2023-08-06T13:01:18;20.50;99.90
21104;DHT22;10710;53.398;-1.514;2023-08-06T13:04:02;20.60;99.90
21104;DHT22;10710;53.398;-1.514;2023-08-06T13:06:47;20.40;99.90
21104;DHT22;10710;53.398;-1.514;2023-08-06T13:09:31;20.10;99.90
21104;DHT22;10710;53.398;-1.514;2023-08-06T13:12:15;20.10;99.90
21104;DHT22;10710;53.398;-1.514;2023-08-06T13:15:03;19.90;99.90
21104;DHT22;10710;53.398;-1.514;2023-08-06T13:17:48;19.60;99.90
21104;DHT22;10710;53.398;-1.514;2023-08-06T13:20:32;19.60;99.90
21104;DHT22;10710;53.398;-1.514;2023-08-06T13:23:16;19.80;99.90
21104;DHT22;10710;53.398;-1.514;2023-08-06T13:26:01;20.00;99.90
21104;DHT22;10710;53.398;-1.514;2023-08-06T13:28:46;20.30;99.90
21104;DHT22;10710;53.398;-1.514;2023-08-06T13:31:30;20.60;99.90
21104;DHT22;10710;53.398;-1.514;2023-08-06T13:34:14;20.90;99.90
21104;DHT22;10710;53.398;-1.514;2023-08-06T13:37:00;20.70;99.90
21104;DHT22;10710;53.398;-1.514;2023-08-06T13:39:45;20.40;99.90
21104;DHT22;10710;53.398;-1.514;2023-08-06T13:42:29;19.90;99.90
21104;DHT22;10710;53.398;-1.514;2023-08-06T13:45:13;19.90;99.90
21104;DHT22;10710;53.398;-1.514;2023-08-06T13:47:58;20.00;99.90
21104;DHT22;10710;53.398;-1.514;2023-08-06T13:50:42;19.80;99.90
21104;DHT22;10710;53.398;-1.514;2023-08-06T13:53:27;19.90;99.90
21104;DHT22;10710;53.398;-1.514;2023-08-06T13:56:14;19.40;99.90
21104;DHT22;10710;53.398;-1.514;2023-08-06T13:59:01;19.80;99.90
21104;DHT22;10710;53.398;-1.514;2023-08-06T14:01:45;20.30;99.90
21104;DHT22;10710;53.398;-1.514;2023-08-06T14:04:30;21.50;99.90
21104;DHT22;10710;53.398;-1.514;2023-08-06T14:07:14;22.50;99.90
21104;DHT22;10710;53.398;-1.514;2023-08-06T14:09:59;22.70;99.90
21104;DHT22;10710;53.398;-1.514;2023-08-06T14:12:43;22.40;99.90
21104;DHT22;10710;53.398;-1.514;2023-08-06T14:15:28;21.60;99.90
21104;DHT22;10710;53.398;-1.514;2023-08-06T14:18:13;21.10;99.90
21104;DHT22;10710;53.398;-1.514;2023-08-06T14:20:58;20.60;99.90
21104;DHT22;10710;53.398;-1.514;2023-08-06T14:23:42;20.10;99.90
21104;DHT22;10710;53.398;-1.514;2023-08-06T14:26:26;19.80;99.90
21104;DHT22;10710;53.398;-1.514;2023-08-06T14:29:10;19.70;99.90
21104;DHT22;10710;53.398;-1.514;2023-08-06T14:31:54;19.40;99.90
21104;DHT22;10710;53.398;-1.514;2023-08-06T14:34:38;19.40;99.90
21104;DHT22;10710;53.398;-1.514;2023-08-06T14:37:23;19.40;99.90
21104;DHT22;10710;53.398;-1.514;2023-08-06T14:40:08;19.30;99.90
21104;DHT22;10710;53.398;-1.514;2023-08-06T14:42:53;19.10;99.90
21104;DHT22;10710;53.398;-1.514;2023-08-06T14:45:40;19.00;99.90
21104;DHT22;10710;53.398;-1.514;2023-08-06T14:48:24;19.20;99.90
21104;DHT22;10710;53.398;-1.514;2023-08-06T14:51:08;19.40;99.90
21104;DHT22;10710;53.398;-1.514;2023-08-06T14:53:53;19.40;99.90
21104;DHT22;10710;53.398;-1.514;2023-08-06T14:56:37;20.00;99.90
21104;DHT22;10710;53.398;-1.514;2023-08-06T14:59:21;19.90;99.90
21104;DHT22;10710;53.398;-1.514;2023-08-06T15:02:05;20.10;99.90
21104;DHT22;10710;53.398;-1.514;2023-08-06T15:04:50;20.10;99.90
21104;DHT22;10710;53.398;-1.514;2023-08-06T15:07:34;19.60;99.90
21104;DHT22;10710;53.398;-1.514;2023-08-06T15:10:19;18.90;99.90
21104;DHT22;10710;53.398;-1.514;2023-08-06T15:13:04;18.40;99.90
21104;DHT22;10710;53.398;-1.514;2023-08-06T15:15:49;18.20;99.90
21104;DHT22;10710;53.398;-1.514;2023-08-06T15:18:34;18.10;99.90
21104;DHT22;10710;53.398;-1.514;2023-08-06T15:21:19;18.20;99.90
21104;DHT22;10710;53.398;-1.514;2023-08-06T15:24:03;18.30;99.90
21104;DHT22;10710;53.398;-1.514;2023-08-06T15:26:48;18.40;99.90
21104;DHT22;10710;53.398;-1.514;2023-08-06T15:29:32;18.70;99.90
21104;DHT22;10710;53.398;-1.514;2023-08-06T15:32:16;18.60;99.90
21104;DHT22;10710;53.398;-1.514;2023-08-06T15:35:00;18.50;99.90
21104;DHT22;10710;53.398;-1.514;2023-08-06T15:37:45;18.80;99.90
21104;DHT22;10710;53.398;-1.514;2023-08-06T15:40:29;18.70;99.90
21104;DHT22;10710;53.398;-1.514;2023-08-06T15:43:14;18.60;99.90
21104;DHT22;10710;53.398;-1.514;2023-08-06T15:45:58;18.80;99.90
21104;DHT22;10710;53.398;-1.514;2023-08-06T15:48:42;19.00;99.90
21104;DHT22;10710;53.398;-1.514;2023-08-06T15:51:26;19.00;99.90
21104;DHT22;10710;53.398;-1.514;2023-08-06T15:54:10;19.00;99.90
21104;DHT22;10710;53.398;-1.514;2023-08-06T15:56:55;19.20;99.90
21104;DHT22;10710;53.398;-1.514;2023-08-06T15:59:39;19.50;99.90
21104;DHT22;10710;53.398;-1.514;2023-08-06T16:02:23;19.90;99.90
21104;DHT22;10710;53.398;-1.514;2023-08-06T16:05:08;19.90;99.90
21104;DHT22;10710;53.398;-1.514;2023-08-06T16:07:53;20.00;99.90
21104;DHT22;10710;53.398;-1.514;2023-08-06T16:10:37;19.90;99.90
21104;DHT22;10710;53.398;-1.514;2023-08-06T16:13:21;19.80;99.90
21104;DHT22;10710;53.398;-1.514;2023-08-06T16:16:05;19.70;99.90
21104;DHT22;10710;53.398;-1.514;2023-08-06T16:18:50;19.40;99.90
21104;DHT22;10710;53.398;-1.514;2023-08-06T16:21:34;19.50;99.90
21104;DHT22;10710;53.398;-1.514;2023-08-06T16:24:19;19.60;99.90
21104;DHT22;10710;53.398;-1.514;2023-08-06T16:27:04;19.60;99.90
21104;DHT22;10710;53.398;-1.514;2023-08-06T16:29:48;19.30;99.90
21104;DHT22;10710;53.398;-1.514;2023-08-06T16:32:32;19.40;99.90
21104;DHT22;10710;53.398;-1.514;2023-08-06T16:35:17;19.30;99.90
21104;DHT22;10710;53.398;-1.514;2023-08-06T16:38:02;19.40;99.90
21104;DHT22;10710;53.398;-1.514;2023-08-06T16:40:53;19.50;99.90
21104;DHT22;10710;53.398;-1.514;2023-08-06T16:43:37;19.60;99.90
21104;DHT22;10710;53.398;-1.514;2023-08-06T16:46:22;19.70;99.90
21104;DHT22;10710;53.398;-1.514;2023-08-06T16:49:06;19.60;99.90
21104;DHT22;10710;53.398;-1.514;2023-08-06T16:51:50;19.40;99.90
21104;DHT22;10710;53.398;-1.514;2023-08-06T16:54:35;19.50;99.90
21104;DHT22;10710;53.398;-1.514;2023-08-06T16:57:19;19.80;99.90
21104;DHT22;10710;53.398;-1.514;2023-08-06T17:00:04;19.50;99.90
21104;DHT22;10710;53.398;-1.514;2023-08-06T17:02:48;19.30;99.90
21104;DHT22;10710;53.398;-1.514;2023-08-06T17:05:33;19.40;99.90
21104;DHT22;10710;53.398;-1.514;2023-08-06T17:08:17;19.40;99.90